Time;durP1;ratioP1;P1;durP2;ratioP2;P2;SDS_P1;SDS_P2;PMS_P1;PMS_P2;Temp;Humidity;BMP_temperature;BMP_pressure;BME280_temperature;BME280_humidity;BME280_pressure;Samples;Min_cycle;Max_cycle;Signal;HPM_P1;HPM_P2
2023/07/20 00:00:57;;;;;;;;;1.75;1.75;;;;;;;;5070206;28;8858;-70
2023/07/20 00:03:25;;;;;;;;;2.50;2.00;;;;;;;;5069919;28;8805;-71
2023/07/20 00:05:50;;;;;;;;;1.00;1.00;;;;;;;;5069783;28;8906;-71
2023/07/20 00:08:16;;;;;;;;;2.00;2.00;;;;;;;;5069894;28;9577;-72
2023/07/20 00:10:41;;;;;;;;;1.25;1.25;;;;;;;;5069538;28;8911;-71
2023/07/20 00:13:07;;;;;;;;;4.00;2.50;;;;;;;;5069627;28;8796;-71
2023/07/20 00:15:32;;;;;;;;;2.25;1.25;;;;;;;;5069647;28;8824;-71
2023/07/20 00:17:57;;;;;;;;;3.00;3.00;;;;;;;;5070041;28;8819;-71
2023/07/20 00:20:23;;;;;;;;;4.00;1.75;;;;;;;;5069955;28;8910;-71
2023/07/20 00:22:50;;;;;;;;;2.25;2.25;;;;;;;;5070335;28;8780;-72
2023/07/20 00:25:16;;;;;;;;;3.50;1.25;;;;;;;;5067554;28;10901;-72
2023/07/20 00:27:41;;;;;;;;;1.00;1.00;;;;;;;;5069444;28;10542;-73
2023/07/20 00:30:06;;;;;;;;;1.50;1.50;;;;;;;;5069408;28;8836;-72
2023/07/20 00:32:32;;;;;;;;;3.00;1.75;;;;;;;;5069580;28;8793;-72
2023/07/20 00:34:57;;;;;;;;;2.75;1.00;;;;;;;;5066897;28;8833;-72
2023/07/20 00:37:22;;;;;;;;;2.00;1.25;;;;;;;;5068548;28;8832;-72
2023/07/20 00:39:48;;;;;;;;;2.00;1.50;;;;;;;;5070327;28;9661;-71
2023/07/20 00:42:13;;;;;;;;;2.25;2.25;;;;;;;;5069190;28;8838;-71
2023/07/20 00:44:38;;;;;;;;;3.75;3.75;;;;;;;;5070510;28;8831;-71
2023/07/20 00:47:04;;;;;;;;;3.00;2.00;;;;;;;;5068948;28;8820;-71
2023/07/20 00:49:29;;;;;;;;;2.25;2.25;;;;;;;;5070037;28;9549;-70
2023/07/20 00:51:54;;;;;;;;;2.75;2.25;;;;;;;;5071989;28;8828;-71
2023/07/20 00:54:19;;;;;;;;;4.50;3.25;;;;;;;;5073770;28;8832;-70
2023/07/20 00:56:45;;;;;;;;;2.75;2.75;;;;;;;;5073361;28;8811;-71
2023/07/20 00:59:11;;;;;;;;;3.25;2.25;;;;;;;;5073895;28;8871;-70
2023/07/20 01:01:36;;;;;;;;;2.75;2.75;;;;;;;;5073540;28;8804;-70
2023/07/20 01:04:01;;;;;;;;;2.50;2.50;;;;;;;;5073071;28;8816;-70
2023/07/20 01:06:36;;;;;;;;;2.00;2.00;;;;;;;;5072354;28;8819;-70
2023/07/20 01:09:01;;;;;;;;;1.25;1.25;;;;;;;;5073578;28;8785;-70
2023/07/20 01:11:43;;;;;;;;;1.75;1.75;;;;;;;;5073330;28;9827;-71
2023/07/20 01:14:09;;;;;;;;;2.25;2.25;;;;;;;;5072136;28;8906;-71
2023/07/20 01:16:34;;;;;;;;;4.00;4.00;;;;;;;;5073443;28;9879;-70
2023/07/20 01:18:59;;;;;;;;;2.00;2.00;;;;;;;;5072994;28;8808;-71
2023/07/20 01:21:30;;;;;;;;;2.00;1.75;;;;;;;;5072180;28;8828;-71
2023/07/20 01:24:13;;;;;;;;;2.50;2.50;;;;;;;;5073326;28;8784;-71
2023/07/20 01:26:50;;;;;;;;;1.75;1.75;;;;;;;;5073158;28;9813;-71
2023/07/20 01:29:15;;;;;;;;;1.50;1.50;;;;;;;;5073391;28;9703;-71
2023/07/20 01:31:41;;;;;;;;;2.25;2.25;;;;;;;;5073119;28;9723;-71
2023/07/20 01:34:08;;;;;;;;;2.00;2.00;;;;;;;;5072877;28;9643;-71
2023/07/20 01:36:35;;;;;;;;;2.25;2.25;;;;;;;;5072837;28;9801;-71
2023/07/20 01:39:00;;;;;;;;;3.75;2.00;;;;;;;;5073288;28;9765;-71
2023/07/20 01:41:25;;;;;;;;;2.00;2.00;;;;;;;;5073017;28;9856;-71
2023/07/20 01:43:50;;;;;;;;;4.00;3.00;;;;;;;;5073280;28;8796;-71
2023/07/20 01:46:16;;;;;;;;;5.00;4.00;;;;;;;;5072918;28;8793;-71
2023/07/20 01:48:41;;;;;;;;;1.00;1.00;;;;;;;;5072735;28;8808;-71
2023/07/20 01:51:06;;;;;;;;;1.50;1.50;;;;;;;;5072879;28;8812;-70
2023/07/20 01:53:31;;;;;;;;;3.50;3.50;;;;;;;;5071685;28;8909;-69
2023/07/20 01:55:57;;;;;;;;;2.00;2.00;;;;;;;;5072736;28;8823;-71
2023/07/20 01:58:23;;;;;;;;;1.00;1.00;;;;;;;;5072812;28;8812;-71
2023/07/20 02:00:48;;;;;;;;;4.00;2.00;;;;;;;;5072790;28;9568;-71
2023/07/20 02:03:13;;;;;;;;;2.25;1.00;;;;;;;;5070980;28;8808;-71
2023/07/20 02:05:39;;;;;;;;;1.50;1.50;;;;;;;;5072719;28;8897;-71
2023/07/20 02:08:04;;;;;;;;;2.00;2.00;;;;;;;;5072780;28;8923;-71
2023/07/20 02:10:29;;;;;;;;;2.25;1.00;;;;;;;;5072481;28;8796;-71
2023/07/20 02:12:55;;;;;;;;;3.00;2.00;;;;;;;;5071315;28;8800;-71
2023/07/20 02:15:21;;;;;;;;;4.75;2.50;;;;;;;;5072383;28;8808;-71
2023/07/20 02:17:46;;;;;;;;;3.25;2.00;;;;;;;;5072083;28;8804;-71
2023/07/20 02:20:11;;;;;;;;;1.25;1.25;;;;;;;;5071140;28;8842;-71
2023/07/20 02:22:37;;;;;;;;;1.75;1.75;;;;;;;;5072577;28;8899;-71
2023/07/20 02:25:03;;;;;;;;;3.00;2.75;;;;;;;;5071182;28;9642;-71
2023/07/20 02:27:29;;;;;;;;;1.00;1.00;;;;;;;;5072513;28;8801;-71
2023/07/20 02:29:54;;;;;;;;;1.75;1.75;;;;;;;;5070690;28;9649;-70
2023/07/20 02:32:19;;;;;;;;;1.25;1.25;;;;;;;;5072067;28;8835;-71
2023/07/20 02:34:45;;;;;;;;;2.00;2.00;;;;;;;;5071674;28;8832;-71
2023/07/20 02:37:12;;;;;;;;;2.75;1.75;;;;;;;;5071023;28;8831;-72
2023/07/20 02:39:38;;;;;;;;;2.00;2.00;;;;;;;;5070636;28;8811;-72
2023/07/20 02:42:03;;;;;;;;;2.50;2.50;;;;;;;;5071830;28;9641;-72
2023/07/20 02:44:28;;;;;;;;;2.00;2.00;;;;;;;;5072200;28;8843;-72
2023/07/20 02:46:54;;;;;;;;;4.00;2.50;;;;;;;;5072060;28;9584;-71
2023/07/20 02:49:20;;;;;;;;;2.75;2.75;;;;;;;;5072082;28;8824;-71
2023/07/20 02:51:46;;;;;;;;;1.50;1.25;;;;;;;;5071690;28;9557;-72
2023/07/20 02:54:11;;;;;;;;;4.50;2.50;;;;;;;;5070581;28;9740;-71
2023/07/20 02:56:36;;;;;;;;;3.50;1.00;;;;;;;;5071846;28;8930;-72
2023/07/20 02:59:02;;;;;;;;;3.00;3.00;;;;;;;;5071757;28;8840;-72
2023/07/20 03:01:29;;;;;;;;;2.00;1.25;;;;;;;;5071949;28;8789;-71
2023/07/20 03:03:54;;;;;;;;;2.00;2.00;;;;;;;;5071261;28;8796;-71
2023/07/20 03:06:19;;;;;;;;;4.00;3.00;;;;;;;;5071421;28;9751;-72
2023/07/20 03:08:47;;;;;;;;;3.25;2.25;;;;;;;;5071650;28;9605;-71
2023/07/20 03:11:12;;;;;;;;;4.00;3.00;;;;;;;;5071809;28;8773;-71
2023/07/20 03:13:37;;;;;;;;;5.75;2.00;;;;;;;;5071355;28;9732;-71
2023/07/20 03:16:03;;;;;;;;;3.00;2.00;;;;;;;;5071332;28;8915;-70
2023/07/20 03:18:28;;;;;;;;;2.25;1.50;;;;;;;;5070222;28;8808;-70
2023/07/20 03:20:53;;;;;;;;;0.25;0.25;;;;;;;;5071598;28;8886;-70
2023/07/20 03:23:18;;;;;;;;;2.50;2.50;;;;;;;;5071698;28;8827;-70
2023/07/20 03:25:43;;;;;;;;;4.25;2.00;;;;;;;;5053329;28;8816;-70
2023/07/20 03:28:09;;;;;;;;;3.75;2.75;;;;;;;;5071023;28;8805;-70
2023/07/20 03:30:35;;;;;;;;;3.00;3.00;;;;;;;;5071548;28;8800;-71
2023/07/20 03:33:00;;;;;;;;;3.00;2.00;;;;;;;;5071280;28;8780;-70
2023/07/20 03:35:25;;;;;;;;;2.75;2.00;;;;;;;;5070944;28;8859;-70
2023/07/20 03:37:50;;;;;;;;;1.25;1.25;;;;;;;;5071287;28;8824;-70
2023/07/20 03:40:16;;;;;;;;;3.75;2.50;;;;;;;;5071066;28;8997;-70
2023/07/20 03:42:41;;;;;;;;;0.00;0.00;;;;;;;;5071098;28;8899;-70
2023/07/20 03:45:07;;;;;;;;;1.75;1.75;;;;;;;;5071126;28;9567;-70
2023/07/20 03:47:32;;;;;;;;;3.50;3.50;;;;;;;;5070905;28;8862;-70
2023/07/20 03:49:57;;;;;;;;;3.00;3.00;;;;;;;;5071143;28;8881;-70
2023/07/20 03:52:23;;;;;;;;;3.00;2.25;;;;;;;;5070897;28;8796;-70
2023/07/20 03:54:48;;;;;;;;;1.50;1.50;;;;;;;;5070836;28;8872;-70
2023/07/20 03:57:13;;;;;;;;;2.00;2.00;;;;;;;;5070688;28;8907;-70
2023/07/20 03:59:39;;;;;;;;;2.00;1.00;;;;;;;;5070958;28;8826;-70
2023/07/20 04:02:05;;;;;;;;;2.25;2.25;;;;;;;;5070790;28;8800;-70
2023/07/20 04:04:30;;;;;;;;;2.00;2.00;;;;;;;;5070658;28;8792;-70
2023/07/20 04:06:56;;;;;;;;;2.50;2.50;;;;;;;;5070556;28;9592;-70
2023/07/20 04:09:21;;;;;;;;;1.75;1.00;;;;;;;;5070561;28;8785;-70
2023/07/20 04:11:46;;;;;;;;;3.25;2.00;;;;;;;;5070430;28;8843;-69
2023/07/20 04:14:11;;;;;;;;;4.00;2.75;;;;;;;;5070848;28;8831;-69
2023/07/20 04:16:37;;;;;;;;;4.00;3.00;;;;;;;;5069394;28;8934;-69
2023/07/20 04:19:02;;;;;;;;;2.75;2.75;;;;;;;;5070702;28;9513;-70
2023/07/20 04:21:28;;;;;;;;;3.50;2.00;;;;;;;;5070475;28;8865;-70
2023/07/20 04:23:53;;;;;;;;;4.00;2.50;;;;;;;;5070738;28;8831;-70
2023/07/20 04:26:18;;;;;;;;;1.00;1.00;;;;;;;;5071004;28;9552;-69
2023/07/20 04:28:43;;;;;;;;;1.75;1.75;;;;;;;;5074270;28;8851;-70
2023/07/20 04:31:10;;;;;;;;;4.00;2.00;;;;;;;;5074211;28;8857;-69
2023/07/20 04:33:35;;;;;;;;;3.75;2.00;;;;;;;;5074087;28;8808;-70
2023/07/20 04:36:00;;;;;;;;;3.25;1.75;;;;;;;;5073011;28;9730;-70
2023/07/20 04:38:26;;;;;;;;;4.00;4.00;;;;;;;;5072974;28;8796;-70
2023/07/20 04:40:51;;;;;;;;;2.75;2.75;;;;;;;;5074063;28;8808;-70
2023/07/20 04:43:17;;;;;;;;;2.25;2.25;;;;;;;;5074026;28;8803;-70
2023/07/20 04:45:42;;;;;;;;;2.00;2.00;;;;;;;;5073999;28;8831;-70
2023/07/20 04:48:11;;;;;;;;;1.75;1.75;;;;;;;;5073825;28;8962;-70
2023/07/20 04:50:36;;;;;;;;;4.00;3.00;;;;;;;;5074153;28;8772;-70
2023/07/20 04:53:02;;;;;;;;;3.75;3.75;;;;;;;;5073869;28;9679;-70
2023/07/20 04:55:27;;;;;;;;;2.00;2.00;;;;;;;;5073422;28;8855;-70
2023/07/20 04:57:53;;;;;;;;;3.50;2.50;;;;;;;;5073947;28;8911;-70
2023/07/20 05:00:19;;;;;;;;;2.75;2.75;;;;;;;;5073839;28;8820;-70
2023/07/20 05:02:44;;;;;;;;;4.00;2.75;;;;;;;;5073464;28;8929;-70
2023/07/20 05:05:09;;;;;;;;;2.50;2.50;;;;;;;;5073827;28;9842;-70
2023/07/20 05:07:34;;;;;;;;;2.50;2.50;;;;;;;;5072486;28;8793;-69
2023/07/20 05:10:00;;;;;;;;;5.25;2.75;;;;;;;;5072410;28;8834;-70
2023/07/20 05:12:25;;;;;;;;;2.75;2.75;;;;;;;;5074031;28;8828;-70
2023/07/20 05:14:51;;;;;;;;;3.00;2.00;;;;;;;;5073623;28;8958;-70
2023/07/20 05:17:16;;;;;;;;;6.00;3.00;;;;;;;;5072578;28;8804;-70
2023/07/20 05:19:41;;;;;;;;;2.00;2.00;;;;;;;;5073839;28;9529;-71
2023/07/20 05:22:06;;;;;;;;;3.25;2.25;;;;;;;;5073784;28;8796;-70
2023/07/20 05:24:31;;;;;;;;;2.75;2.75;;;;;;;;5073502;28;8898;-70
2023/07/20 05:26:58;;;;;;;;;2.50;2.50;;;;;;;;5074064;28;8788;-70
2023/07/20 05:29:23;;;;;;;;;3.25;2.00;;;;;;;;5073984;28;8761;-70
2023/07/20 05:31:48;;;;;;;;;1.50;1.50;;;;;;;;5073782;28;9827;-70
2023/07/20 05:34:14;;;;;;;;;3.00;3.00;;;;;;;;5073404;28;8936;-70
2023/07/20 05:36:39;;;;;;;;;2.00;2.00;;;;;;;;5072039;28;8824;-70
2023/07/20 05:39:04;;;;;;;;;3.25;2.00;;;;;;;;5073033;28;9661;-71
2023/07/20 05:41:29;;;;;;;;;3.25;2.50;;;;;;;;5073179;28;8889;-70
2023/07/20 05:43:55;;;;;;;;;1.25;1.25;;;;;;;;5073198;28;8915;-70
2023/07/20 05:46:20;;;;;;;;;2.50;2.50;;;;;;;;5074091;28;8820;-70
2023/07/20 05:48:45;;;;;;;;;3.00;3.00;;;;;;;;5072242;28;8836;-70
2023/07/20 05:51:11;;;;;;;;;1.75;1.75;;;;;;;;5072995;28;8826;-70
2023/07/20 05:53:36;;;;;;;;;1.75;1.75;;;;;;;;5072805;28;9071;-70
2023/07/20 05:56:02;;;;;;;;;2.00;2.00;;;;;;;;5073328;28;9610;-71
2023/07/20 05:58:28;;;;;;;;;2.50;2.50;;;;;;;;5073426;28;8796;-70
2023/07/20 06:00:53;;;;;;;;;1.50;1.50;;;;;;;;5071850;28;9858;-70
2023/07/20 06:03:18;;;;;;;;;5.75;3.00;;;;;;;;5073232;28;8816;-70
2023/07/20 06:05:43;;;;;;;;;2.50;2.50;;;;;;;;5073175;28;8805;-70
2023/07/20 06:08:09;;;;;;;;;1.50;1.50;;;;;;;;5072560;28;8792;-70
2023/07/20 06:10:34;;;;;;;;;3.50;2.50;;;;;;;;5073204;28;8823;-70
2023/07/20 06:12:59;;;;;;;;;5.25;4.75;;;;;;;;5073095;28;8867;-70
2023/07/20 06:15:31;;;;;;;;;4.75;4.75;;;;;;;;5071370;28;8821;-70
2023/07/20 06:17:57;;;;;;;;;6.25;4.50;;;;;;;;5072641;28;8789;-70
2023/07/20 06:20:23;;;;;;;;;2.50;2.50;;;;;;;;5072390;28;10729;-70
2023/07/20 06:22:48;;;;;;;;;3.00;3.00;;;;;;;;5072437;28;9803;-70
2023/07/20 06:25:13;;;;;;;;;5.00;4.50;;;;;;;;5072526;28;9615;-71
2023/07/20 06:27:38;;;;;;;;;4.75;4.75;;;;;;;;5072395;28;9544;-71
2023/07/20 06:30:04;;;;;;;;;4.25;4.25;;;;;;;;5072173;28;8800;-70
2023/07/20 06:32:29;;;;;;;;;5.00;3.75;;;;;;;;5072388;28;8824;-70
2023/07/20 06:34:54;;;;;;;;;5.25;5.25;;;;;;;;5071842;28;8805;-70
2023/07/20 06:37:20;;;;;;;;;4.25;4.25;;;;;;;;5071877;28;8823;-70
2023/07/20 06:39:46;;;;;;;;;6.75;6.50;;;;;;;;5072125;28;8890;-70
2023/07/20 06:42:11;;;;;;;;;8.75;8.75;;;;;;;;5072089;28;8816;-71
2023/07/20 06:44:36;;;;;;;;;7.50;5.00;;;;;;;;5072109;28;8801;-71
2023/07/20 06:47:02;;;;;;;;;9.25;6.50;;;;;;;;5072100;28;8907;-71
2023/07/20 06:49:28;;;;;;;;;4.75;4.75;;;;;;;;5069862;28;8874;-71
2023/07/20 06:51:53;;;;;;;;;5.25;5.25;;;;;;;;5071119;28;9750;-70
2023/07/20 06:54:19;;;;;;;;;3.50;3.50;;;;;;;;5071920;28;9647;-71
2023/07/20 06:56:44;;;;;;;;;5.00;4.00;;;;;;;;5071825;28;9424;-70
2023/07/20 06:59:09;;;;;;;;;3.00;2.25;;;;;;;;5071950;28;9552;-71
2023/07/20 07:01:34;;;;;;;;;4.50;4.00;;;;;;;;5071820;28;9596;-71
2023/07/20 07:03:59;;;;;;;;;8.50;4.75;;;;;;;;5071413;28;8847;-70
2023/07/20 07:06:25;;;;;;;;;4.75;3.75;;;;;;;;5071371;28;8805;-71
2023/07/20 07:08:50;;;;;;;;;4.00;4.00;;;;;;;;5071760;28;8797;-70
2023/07/20 07:11:15;;;;;;;;;3.00;3.00;;;;;;;;5071658;28;8804;-70
2023/07/20 07:13:41;;;;;;;;;4.25;4.25;;;;;;;;5071467;28;9002;-71
2023/07/20 07:16:06;;;;;;;;;6.25;6.25;;;;;;;;5071651;28;8812;-71
2023/07/20 07:18:31;;;;;;;;;4.50;3.50;;;;;;;;5053623;28;8808;-70
2023/07/20 07:20:56;;;;;;;;;3.75;3.75;;;;;;;;5071257;28;8792;-70
2023/07/20 07:23:22;;;;;;;;;5.50;3.75;;;;;;;;5071766;28;8819;-70
2023/07/20 07:25:47;;;;;;;;;4.00;4.00;;;;;;;;5071300;28;8827;-70
2023/07/20 07:28:13;;;;;;;;;4.50;4.50;;;;;;;;5071317;28;8858;-70
2023/07/20 07:30:38;;;;;;;;;2.00;2.00;;;;;;;;5070385;28;8780;-71
2023/07/20 07:33:03;;;;;;;;;5.50;4.50;;;;;;;;5071253;28;8797;-70
2023/07/20 07:35:29;;;;;;;;;3.25;3.25;;;;;;;;5070739;28;8862;-71
2023/07/20 07:37:54;;;;;;;;;6.50;4.25;;;;;;;;5070174;28;8938;-70
2023/07/20 07:40:19;;;;;;;;;2.75;2.75;;;;;;;;5071187;28;8808;-70
2023/07/20 07:42:45;;;;;;;;;3.50;3.50;;;;;;;;5071310;28;8784;-71
2023/07/20 07:45:10;;;;;;;;;5.00;4.75;;;;;;;;5069714;28;8827;-70
2023/07/20 07:47:35;;;;;;;;;4.75;4.75;;;;;;;;5071115;28;8904;-70
2023/07/20 07:50:01;;;;;;;;;5.75;4.00;;;;;;;;5069686;28;8831;-70
2023/07/20 07:52:26;;;;;;;;;5.50;5.00;;;;;;;;5070855;28;8816;-70
2023/07/20 07:54:51;;;;;;;;;3.00;3.00;;;;;;;;5070944;28;8852;-70
2023/07/20 07:57:16;;;;;;;;;5.25;5.25;;;;;;;;5070807;28;8823;-71
2023/07/20 07:59:42;;;;;;;;;5.75;4.25;;;;;;;;5069532;28;8789;-70
2023/07/20 08:02:07;;;;;;;;;6.50;4.75;;;;;;;;5069540;28;8882;-70
2023/07/20 08:04:32;;;;;;;;;5.25;4.25;;;;;;;;5069440;28;8808;-70
2023/07/20 08:06:58;;;;;;;;;3.25;3.25;;;;;;;;5069762;28;8914;-70
2023/07/20 08:09:24;;;;;;;;;3.75;3.75;;;;;;;;5070446;28;8935;-70
2023/07/20 08:11:49;;;;;;;;;7.25;6.50;;;;;;;;5070992;28;9770;-70
2023/07/20 08:14:15;;;;;;;;;5.75;4.50;;;;;;;;5070606;28;8824;-70
2023/07/20 08:16:40;;;;;;;;;5.75;5.75;;;;;;;;5070776;28;8807;-70
2023/07/20 08:19:05;;;;;;;;;4.00;2.00;;;;;;;;5069370;28;8820;-70
2023/07/20 08:21:30;;;;;;;;;3.00;3.00;;;;;;;;5070477;28;10616;-70
2023/07/20 08:23:56;;;;;;;;;2.50;1.00;;;;;;;;5070866;28;8824;-70
2023/07/20 08:26:22;;;;;;;;;5.75;5.25;;;;;;;;5070698;28;9607;-69
2023/07/20 08:28:48;;;;;;;;;4.75;3.50;;;;;;;;5070532;28;8799;-70
2023/07/20 08:31:13;;;;;;;;;5.25;5.00;;;;;;;;5070620;28;9711;-70
2023/07/20 08:33:38;;;;;;;;;3.75;3.75;;;;;;;;5070057;28;8862;-70
2023/07/20 08:36:05;;;;;;;;;3.25;3.25;;;;;;;;5070138;28;8808;-70
2023/07/20 08:38:30;;;;;;;;;5.75;5.75;;;;;;;;5070627;28;8787;-70
2023/07/20 08:40:55;;;;;;;;;6.75;4.75;;;;;;;;5048569;28;9747;-70
2023/07/20 08:43:23;;;;;;;;;5.00;5.00;;;;;;;;5049179;28;8827;-69
2023/07/20 08:45:49;;;;;;;;;4.00;4.00;;;;;;;;5050360;28;8787;-69
2023/07/20 08:48:15;;;;;;;;;3.50;2.75;;;;;;;;5050031;28;9733;-70
2023/07/20 08:50:41;;;;;;;;;3.75;3.75;;;;;;;;5051913;28;9743;-70
2023/07/20 08:53:06;;;;;;;;;5.00;4.50;;;;;;;;5070241;28;8804;-70
2023/07/20 08:55:32;;;;;;;;;4.00;3.00;;;;;;;;5068695;28;8823;-70
2023/07/20 08:57:58;;;;;;;;;2.00;2.00;;;;;;;;5070307;28;8804;-71
2023/07/20 09:00:24;;;;;;;;;5.00;3.50;;;;;;;;5070124;28;9761;-71
2023/07/20 09:02:50;;;;;;;;;3.00;3.00;;;;;;;;5068571;28;9572;-70
2023/07/20 09:05:15;;;;;;;;;3.00;3.00;;;;;;;;5070203;28;8796;-71
2023/07/20 09:07:40;;;;;;;;;4.25;2.25;;;;;;;;5069918;28;9565;-71
2023/07/20 09:10:06;;;;;;;;;1.75;1.75;;;;;;;;5068761;28;8831;-71
2023/07/20 09:12:34;;;;;;;;;3.75;2.75;;;;;;;;5071128;28;8797;-71
2023/07/20 09:15:00;;;;;;;;;5.75;3.75;;;;;;;;5072251;28;12290;-71
2023/07/20 09:17:25;;;;;;;;;2.00;2.00;;;;;;;;5073200;28;9722;-70
2023/07/20 09:19:51;;;;;;;;;1.00;0.00;;;;;;;;5073182;28;8797;-71
2023/07/20 09:22:17;;;;;;;;;2.00;2.00;;;;;;;;5073341;28;8908;-71
2023/07/20 09:24:42;;;;;;;;;1.50;1.50;;;;;;;;5073397;28;8799;-71
2023/07/20 09:27:09;;;;;;;;;1.75;1.75;;;;;;;;5073221;28;9569;-71
2023/07/20 09:29:34;;;;;;;;;2.00;1.00;;;;;;;;5073136;28;8803;-71
2023/07/20 09:32:03;;;;;;;;;2.33;1.00;;;;;;;;5072982;28;9496;-71
2023/07/20 09:34:32;;;;;;;;;1.00;1.00;;;;;;;;5071759;28;8815;-71
2023/07/20 09:37:00;;;;;;;;;2.00;2.00;;;;;;;;5071686;28;9577;-71
2023/07/20 09:39:25;;;;;;;;;0.67;0.67;;;;;;;;5072855;28;9570;-71
2023/07/20 09:41:51;;;;;;;;;2.25;2.00;;;;;;;;5073339;28;10259;-72
2023/07/20 09:44:17;;;;;;;;;2.00;1.33;;;;;;;;5073298;28;8894;-70
2023/07/20 09:46:46;;;;;;;;;2.00;2.00;;;;;;;;5071419;28;9339;-70
2023/07/20 09:49:12;;;;;;;;;2.75;1.00;;;;;;;;5073031;28;8808;-70
2023/07/20 09:51:37;;;;;;;;;2.00;1.00;;;;;;;;5072915;28;9669;-70
2023/07/20 09:54:03;;;;;;;;;3.50;2.00;;;;;;;;5073023;28;9676;-69
2023/07/20 09:56:30;;;;;;;;;1.00;1.00;;;;;;;;5073006;28;8780;-69
2023/07/20 09:58:55;;;;;;;;;2.00;2.00;;;;;;;;5072576;28;9642;-70
2023/07/20 10:01:22;;;;;;;;;2.50;2.50;;;;;;;;5072684;28;9646;-70
2023/07/20 10:03:47;;;;;;;;;2.75;1.25;;;;;;;;5072385;28;8800;-70
2023/07/20 10:06:15;;;;;;;;;1.00;1.00;;;;;;;;5071311;28;9904;-70
2023/07/20 10:08:41;;;;;;;;;0.25;0.25;;;;;;;;5072994;28;8868;-71
2023/07/20 10:11:07;;;;;;;;;2.25;1.25;;;;;;;;5073451;28;9630;-71
2023/07/20 10:13:36;;;;;;;;;1.75;1.75;;;;;;;;5073090;28;8777;-71
2023/07/20 10:16:05;;;;;;;;;0.50;0.25;;;;;;;;5071682;28;9732;-71
2023/07/20 10:18:49;;;;;;;;;1.00;1.00;;;;;;;;5073415;28;9690;-71
2023/07/20 10:21:16;;;;;;;;;2.00;2.00;;;;;;;;5073399;28;9716;-71
2023/07/20 10:23:42;;;;;;;;;1.25;1.25;;;;;;;;5072272;28;9722;-71
2023/07/20 10:26:08;;;;;;;;;1.00;1.00;;;;;;;;5072657;28;9814;-71
2023/07/20 10:28:33;;;;;;;;;1.00;1.00;;;;;;;;5072453;28;8764;-71
2023/07/20 10:30:59;;;;;;;;;1.00;1.00;;;;;;;;5072852;28;9887;-71
2023/07/20 10:33:24;;;;;;;;;1.75;1.00;;;;;;;;5072434;28;8812;-71
2023/07/20 10:35:56;;;;;;;;;0.00;0.00;;;;;;;;5072053;28;8812;-71
2023/07/20 10:38:45;;;;;;;;;1.25;1.00;;;;;;;;5072227;28;8799;-71
2023/07/20 10:41:15;;;;;;;;;0.25;0.25;;;;;;;;5063869;28;9920;-74
2023/07/20 10:43:42;;;;;;;;;1.25;1.25;;;;;;;;5071776;28;10582;-73
2023/07/20 10:46:10;;;;;;;;;1.25;0.25;;;;;;;;5072100;28;10065;-73
2023/07/20 10:48:55;;;;;;;;;0.00;0.00;;;;;;;;5071908;28;9846;-73
2023/07/20 10:51:20;;;;;;;;;0.25;0.00;;;;;;;;5071510;28;9962;-73
2023/07/20 10:53:48;;;;;;;;;0.25;0.25;;;;;;;;5070658;28;9888;-73
2023/07/20 10:56:17;;;;;;;;;0.75;0.75;;;;;;;;5071814;28;8781;-73
2023/07/20 10:58:42;;;;;;;;;0.00;0.00;;;;;;;;5071534;28;9950;-73
2023/07/20 11:01:07;;;;;;;;;1.00;1.00;;;;;;;;5072209;28;10556;-73
2023/07/20 11:03:34;;;;;;;;;1.00;1.00;;;;;;;;5071670;28;8828;-73
2023/07/20 11:06:12;;;;;;;;;0.25;0.25;;;;;;;;5071703;28;9613;-73
2023/07/20 11:08:41;;;;;;;;;0.00;0.00;;;;;;;;5069530;28;28241;-73
2023/07/20 11:11:21;;;;;;;;;0.75;0.75;;;;;;;;5071991;28;9681;-73
2023/07/20 11:13:58;;;;;;;;;0.00;0.00;;;;;;;;5071342;28;9689;-73
2023/07/20 11:16:43;;;;;;;;;2.00;1.00;;;;;;;;5070218;28;10529;-73
2023/07/20 11:19:15;;;;;;;;;1.75;0.00;;;;;;;;5071482;28;9872;-74
2023/07/20 11:21:41;;;;;;;;;0.00;0.00;;;;;;;;5071859;28;9667;-72
2023/07/20 11:24:07;;;;;;;;;0.00;0.00;;;;;;;;5071545;28;9567;-75
2023/07/20 11:26:42;;;;;;;;;0.50;0.00;;;;;;;;5071480;28;8855;-73
2023/07/20 11:29:07;;;;;;;;;0.00;0.00;;;;;;;;5071737;28;8792;-72
2023/07/20 11:31:36;;;;;;;;;0.00;0.00;;;;;;;;5070242;28;9670;-72
2023/07/20 11:34:02;;;;;;;;;1.00;1.00;;;;;;;;5071531;28;8792;-72
2023/07/20 11:36:27;;;;;;;;;0.00;0.00;;;;;;;;5071027;28;9526;-72
2023/07/20 11:38:53;;;;;;;;;1.75;0.00;;;;;;;;5071297;28;8800;-71
2023/07/20 11:41:18;;;;;;;;;1.00;1.00;;;;;;;;5071175;28;8761;-72
2023/07/20 11:43:45;;;;;;;;;0.00;0.00;;;;;;;;5071414;28;9704;-72
2023/07/20 11:46:10;;;;;;;;;0.25;0.25;;;;;;;;5071193;28;8791;-72
2023/07/20 11:48:36;;;;;;;;;0.00;0.00;;;;;;;;5071271;28;9559;-72
2023/07/20 11:51:01;;;;;;;;;0.50;0.00;;;;;;;;5071242;28;8874;-72
2023/07/20 11:53:26;;;;;;;;;0.00;0.00;;;;;;;;5071056;28;9619;-72
2023/07/20 11:55:52;;;;;;;;;0.00;0.00;;;;;;;;5071015;28;8886;-73
2023/07/20 11:58:17;;;;;;;;;0.00;0.00;;;;;;;;5070830;28;8899;-72
2023/07/20 12:00:43;;;;;;;;;0.00;0.00;;;;;;;;5071133;28;8820;-72
2023/07/20 12:03:11;;;;;;;;;0.00;0.00;;;;;;;;5069718;28;8831;-71
2023/07/20 12:05:37;;;;;;;;;0.00;0.00;;;;;;;;5070586;28;9634;-71
2023/07/20 12:08:03;;;;;;;;;0.00;0.00;;;;;;;;5070927;28;9557;-71
2023/07/20 12:10:28;;;;;;;;;0.00;0.00;;;;;;;;5069516;28;9667;-71
2023/07/20 12:12:53;;;;;;;;;1.00;0.00;;;;;;;;5070493;28;8896;-73
2023/07/20 12:15:22;;;;;;;;;0.00;0.00;;;;;;;;5070602;28;9669;-73
2023/07/20 12:17:51;;;;;;;;;0.00;0.00;;;;;;;;5070936;28;8874;-74
2023/07/20 12:20:36;;;;;;;;;0.00;0.00;;;;;;;;5070735;28;9580;-73
2023/07/20 12:23:04;;;;;;;;;0.00;0.00;;;;;;;;5071023;28;9665;-73
2023/07/20 12:25:47;;;;;;;;;0.00;0.00;;;;;;;;5070290;28;9550;-73
2023/07/20 12:28:14;;;;;;;;;0.50;0.00;;;;;;;;5070411;28;9551;-73
2023/07/20 12:30:40;;;;;;;;;0.00;0.00;;;;;;;;5070890;28;9476;-73
2023/07/20 12:33:05;;;;;;;;;0.50;0.50;;;;;;;;5070781;28;9597;-73
2023/07/20 12:35:31;;;;;;;;;0.00;0.00;;;;;;;;5070248;28;8885;-73
2023/07/20 12:37:56;;;;;;;;;0.00;0.00;;;;;;;;5070665;28;9662;-73
2023/07/20 12:40:22;;;;;;;;;0.00;0.00;;;;;;;;5070601;28;8800;-73
2023/07/20 12:42:47;;;;;;;;;0.00;0.00;;;;;;;;5070439;28;8796;-73
2023/07/20 12:45:13;;;;;;;;;0.50;0.00;;;;;;;;5070456;28;8819;-72
2023/07/20 12:47:38;;;;;;;;;0.00;0.00;;;;;;;;5071752;28;8784;-72
2023/07/20 12:50:06;;;;;;;;;0.25;0.25;;;;;;;;5073912;28;9636;-72
2023/07/20 12:52:31;;;;;;;;;0.00;0.00;;;;;;;;5072397;28;8788;-72
2023/07/20 12:54:56;;;;;;;;;1.75;1.00;;;;;;;;5073748;28;9631;-72
2023/07/20 12:57:22;;;;;;;;;0.50;0.50;;;;;;;;5074084;28;8777;-72
2023/07/20 12:59:47;;;;;;;;;0.00;0.00;;;;;;;;5073745;28;8926;-72
2023/07/20 13:02:12;;;;;;;;;1.75;0.00;;;;;;;;5072438;28;8839;-72
2023/07/20 13:04:37;;;;;;;;;0.00;0.00;;;;;;;;5073796;28;9564;-72
2023/07/20 13:07:03;;;;;;;;;0.00;0.00;;;;;;;;5073966;28;8789;-72
2023/07/20 13:09:28;;;;;;;;;1.00;1.00;;;;;;;;5073435;28;8815;-72
2023/07/20 13:11:53;;;;;;;;;0.50;0.50;;;;;;;;5072256;28;8854;-72
2023/07/20 13:14:19;;;;;;;;;0.00;0.00;;;;;;;;5072167;28;8909;-73
2023/07/20 13:16:44;;;;;;;;;1.75;0.50;;;;;;;;5073556;28;8819;-71
2023/07/20 13:19:09;;;;;;;;;0.00;0.00;;;;;;;;5073732;28;8804;-72
2023/07/20 13:21:34;;;;;;;;;0.25;0.25;;;;;;;;5073519;28;8831;-72
2023/07/20 13:23:59;;;;;;;;;1.00;1.00;;;;;;;;5073168;28;8796;-71
2023/07/20 13:26:25;;;;;;;;;0.25;0.25;;;;;;;;5073500;28;8785;-72
2023/07/20 13:28:50;;;;;;;;;1.00;1.00;;;;;;;;5073175;28;8895;-72
2023/07/20 13:31:17;;;;;;;;;0.25;0.00;;;;;;;;5072167;28;8849;-72
2023/07/20 13:33:42;;;;;;;;;0.00;0.00;;;;;;;;5072978;28;8795;-72
2023/07/20 13:36:08;;;;;;;;;0.00;0.00;;;;;;;;5073160;28;9720;-71
2023/07/20 13:38:33;;;;;;;;;0.50;0.50;;;;;;;;5071781;28;8804;-72
2023/07/20 13:40:58;;;;;;;;;0.00;0.00;;;;;;;;5054973;28;8820;-72
2023/07/20 13:43:23;;;;;;;;;0.00;0.00;;;;;;;;5073002;28;9610;-72
2023/07/20 13:45:48;;;;;;;;;0.00;0.00;;;;;;;;5071824;28;9588;-72
2023/07/20 13:48:14;;;;;;;;;2.00;1.00;;;;;;;;5073205;28;9587;-71
2023/07/20 13:50:40;;;;;;;;;0.00;0.00;;;;;;;;5072991;28;8792;-71
2023/07/20 13:53:05;;;;;;;;;1.00;1.00;;;;;;;;5072502;28;10044;-71
2023/07/20 13:55:31;;;;;;;;;0.00;0.00;;;;;;;;5072824;28;9689;-71
2023/07/20 13:57:56;;;;;;;;;0.25;0.25;;;;;;;;5072933;28;8795;-73
2023/07/20 14:00:21;;;;;;;;;1.25;0.00;;;;;;;;5073063;28;8811;-72
2023/07/20 14:02:46;;;;;;;;;0.50;0.50;;;;;;;;5072815;28;8827;-72
2023/07/20 14:05:11;;;;;;;;;1.00;1.00;;;;;;;;5071259;28;8812;-73
2023/07/20 14:07:37;;;;;;;;;0.25;0.00;;;;;;;;5072451;28;8816;-73
2023/07/20 14:10:02;;;;;;;;;0.00;0.00;;;;;;;;5071453;28;8824;-72
2023/07/20 14:12:28;;;;;;;;;0.00;0.00;;;;;;;;5072781;28;8897;-71
2023/07/20 14:14:54;;;;;;;;;1.00;1.00;;;;;;;;5070890;28;8834;-72
2023/07/20 14:17:19;;;;;;;;;1.00;1.00;;;;;;;;5072470;28;8791;-72
2023/07/20 14:19:44;;;;;;;;;0.50;0.50;;;;;;;;5072560;28;10357;-72
2023/07/20 14:22:09;;;;;;;;;1.00;0.25;;;;;;;;5072457;28;8835;-72
2023/07/20 14:24:35;;;;;;;;;1.75;0.75;;;;;;;;5071247;28;8889;-72
2023/07/20 14:27:00;;;;;;;;;1.00;0.00;;;;;;;;5071290;28;8812;-72
2023/07/20 14:29:26;;;;;;;;;0.75;0.75;;;;;;;;5071093;28;8808;-72
2023/07/20 14:31:52;;;;;;;;;1.00;1.00;;;;;;;;5071181;28;8935;-71
2023/07/20 14:34:18;;;;;;;;;1.00;1.00;;;;;;;;5072229;28;8824;-71
2023/07/20 14:36:44;;;;;;;;;0.75;0.75;;;;;;;;5072147;28;8772;-72
2023/07/20 14:39:09;;;;;;;;;2.25;1.00;;;;;;;;5072193;28;9689;-71
2023/07/20 14:41:34;;;;;;;;;1.00;1.00;;;;;;;;5070614;28;8812;-72
2023/07/20 14:43:59;;;;;;;;;0.00;0.00;;;;;;;;5072170;28;8815;-72
2023/07/20 14:46:25;;;;;;;;;0.50;0.00;;;;;;;;5072096;28;8815;-72
2023/07/20 14:48:51;;;;;;;;;0.00;0.00;;;;;;;;5071977;28;8788;-72